Latest Weather Observations for Portland Harbour

IDV60801

Issued at 9:02 am EST Friday 3 July 2015 (issued every 30 minutes, with the page automatically refreshed every 10 minutes)

About weather observations | Map of weather stations | Latest weather observations for VIC | Other Formats
Station Details ID: 090192 Name: PORTLAND NTC AWS Lat: -38.34 Lon: 141.61 Height: 0.0 m
Data from the previous 72 hours. | See also: Recent months for locations in Victoria
Date/Time
EST
Temp
°C
App
Temp
°C
Dew
Point
Rel
Hum
%
Delta-T
°C
Wind Press
QNH
hPa
Press
MSL
hPa
Rain
since 9 am
mm
Dir
 
Spd
km/h
Gust
km/h
Spd
kts
Gust
kts
03/09:00am 7.6 - - - - WNW 11 15 6 8 1028.2 1028.2 -
03/08:30am 7.5 - - - - WNW 9 15 5 8 1028.3 1028.3 -
03/08:00am 7.7 - - - - NW 7 13 4 7 1028.4 1028.4 -
03/07:30am 7.4 - - - - WNW 7 11 4 6 1028.4 1028.4 -
03/07:00am 7.6 - - - - W 9 13 5 7 1028.3 1028.3 -
03/06:30am 7.7 - - - - NW 11 17 6 9 1028.0 1028.0 -
03/06:00am 8.2 - - - - NW 9 15 5 8 1027.8 1027.8 -
03/05:30am 8.0 - - - - WNW 11 17 6 9 1027.9 1027.9 -
03/05:00am 8.2 - - - - W 9 13 5 7 1028.0 1028.0 -
03/04:30am 8.3 - - - - NW 9 11 5 6 1028.1 1028.1 -
03/04:00am 7.6 - - - - W 11 15 6 8 1028.2 1028.2 -
03/03:30am 8.2 - - - - W 7 9 4 5 1028.4 1028.4 -
03/03:00am 7.4 - - - - W 11 15 6 8 1028.6 1028.6 -
03/02:30am 8.0 - - - - WNW 9 13 5 7 1028.6 1028.6 -
03/02:00am 7.4 - - - - SW 6 9 3 5 1028.6 1028.6 -
03/01:30am 8.5 - - - - WNW 6 11 3 6 1028.8 1028.8 -
03/01:00am 7.2 - - - - NW 11 15 6 8 1029.1 1029.1 -
03/12:30am 7.4 - - - - WNW 9 11 5 6 1029.3 1029.3 -
03/12:00am 8.4 - - - - WSW 4 6 2 3 1029.6 1029.6 -
 
Date/Time
EST
Temp
°C
App
Temp
°C
Dew
Point
Rel
Hum
%
Delta-T
°C
Wind Press
QNH
hPa
Press
MSL
hPa
Rain
since 9 am
mm
Dir
 
Spd
km/h
Gust
km/h
Spd
kts
Gust
kts
02/11:30pm 9.0 - - - - WNW 7 9 4 5 1029.8 1029.8 -
02/11:00pm 9.5 - - - - WNW 9 13 5 7 1029.8 1029.8 -
02/10:30pm 10.1 - - - - SSW 4 6 2 3 1029.6 1029.6 -
02/10:00pm 9.8 - - - - W 6 9 3 5 1029.8 1029.8 -
02/09:30pm 9.8 - - - - W 11 17 6 9 1029.7 1029.7 -
02/09:00pm 9.7 - - - - W 7 9 4 5 1029.6 1029.6 -
02/08:30pm 9.8 - - - - SW 13 19 7 10 1029.5 1029.5 -
02/08:00pm 10.0 - - - - S 9 15 5 8 1029.4 1029.4 -
02/07:30pm 9.8 - - - - SW 15 22 8 12 1029.2 1029.2 -
02/07:00pm 10.2 - - - - S 20 30 11 16 1029.1 1029.1 -
02/06:30pm 10.3 - - - - SSW 9 15 5 8 1028.7 1028.7 -
02/06:00pm 10.4 - - - - SSW 13 17 7 9 1028.5 1028.5 -
02/05:30pm 10.7 - - - - SSW 13 17 7 9 1028.2 1028.2 -
02/05:00pm 11.0 - - - - SSW 13 20 7 11 1028.0 1028.0 -
02/04:30pm 11.2 - - - - S 19 28 10 15 1027.9 1027.9 -
02/04:00pm 11.6 - - - - SSW 15 24 8 13 1027.7 1027.7 -
02/03:30pm 11.7 - - - - SSW 19 28 10 15 1027.5 1027.5 -
02/03:00pm 11.5 - - - - SSW 24 32 13 17 1027.2 1027.2 -
02/02:30pm 11.6 - - - - SSW 22 33 12 18 1026.9 1026.9 -
02/02:00pm 11.5 - - - - SSW 22 32 12 17 1026.6 1026.6 -
02/01:30pm 11.6 - - - - SSW 28 37 15 20 1026.5 1026.5 -
02/01:00pm 11.6 - - - - S 28 39 15 21 1026.6 1026.6 -
02/12:30pm 11.5 - - - - SSW 26 39 14 21 1026.7 1026.7 -
02/12:00pm 11.6 - - - - SSW 28 39 15 21 1026.5 1026.5 -
02/11:36am 11.6 - - - - SSW 30 50 16 27 1026.4 1026.4 -
02/11:30am 11.4 - - - - SSW 30 39 16 21 1026.4 1026.4 -
02/11:00am 11.3 - - - - SSW 32 46 17 25 1026.2 1026.2 -
02/10:30am 11.5 - - - - SSW 33 48 18 26 1025.7 1025.7 -
02/10:00am 11.4 - - - - SSW 33 50 18 27 1025.2 1025.2 -
02/09:36am 11.3 - - - - SSW 32 52 17 28 1024.9 1024.9 -
02/09:30am 11.5 - - - - SSW 32 50 17 27 1024.9 1024.9 -
02/09:00am 11.2 - - - - SSW 39 52 21 28 1024.5 1024.5 -
02/08:32am 10.7 - - - - SW 35 57 19 31 1024.2 1024.2 -
02/08:30am 10.6 - - - - SW 32 48 17 26 1024.2 1024.2 -
02/08:04am 10.1 - - - - SSW 41 61 22 33 1023.9 1023.9 -
02/08:00am 10.1 - - - - SSW 43 61 23 33 1023.8 1023.8 -
02/07:34am 10.7 - - - - SSW 39 59 21 32 1023.3 1023.3 -
02/07:30am 10.5 - - - - SSW 37 54 20 29 1023.1 1023.1 -
02/07:11am 11.9 - - - - SW 37 78 20 42 1022.5 1022.5 -
02/07:00am 11.7 - - - - SW 33 54 18 29 1022.1 1022.1 -
02/06:30am 11.6 - - - - WSW 33 65 18 35 1021.6 1021.6 -
02/06:04am 11.5 - - - - WSW 35 57 19 31 1021.2 1021.2 -
02/06:00am 11.7 - - - - WSW 32 43 17 23 1021.1 1021.1 -
02/05:49am 11.6 - - - - WSW 30 50 16 27 1020.9 1020.9 -
02/05:30am 12.2 - - - - SW 32 48 17 26 1020.8 1020.8 -
02/05:02am 11.8 - - - - WSW 32 50 17 27 1020.6 1020.6 -
02/05:00am 11.9 - - - - WSW 33 50 18 27 1020.6 1020.6 -
02/04:30am 12.2 - - - - SW 37 50 20 27 1020.3 1020.3 -
02/04:18am 12.2 - - - - SW 32 52 17 28 1020.4 1020.4 -
02/04:00am 12.2 - - - - WSW 32 44 17 24 1020.4 1020.4 -
02/03:30am 12.2 - - - - WSW 26 37 14 20 1020.4 1020.4 -
02/03:00am 12.1 - - - - WSW 28 41 15 22 1020.3 1020.3 -
02/02:30am 11.8 - - - - WSW 24 37 13 20 1020.1 1020.1 -
02/02:00am 12.3 - - - - WSW 30 43 16 23 1020.1 1020.1 -
02/01:30am 12.3 - - - - WSW 32 50 17 27 1020.0 1020.0 -
02/01:15am 12.4 - - - - SW 33 56 18 30 1019.9 1019.9 -
02/01:00am 12.7 - - - - WSW 30 48 16 26 1019.8 1019.8 -
02/12:55am 12.7 - - - - WSW 28 48 15 26 1019.8 1019.8 -
02/12:30am 12.8 - - - - WSW 33 50 18 27 1019.7 1019.7 -
02/12:21am 12.9 - - - - WSW 28 50 15 27 1019.9 1019.9 -
02/12:00am 13.2 - - - - WSW 30 43 16 23 1019.6 1019.6 -
 
Date/Time
EST
Temp
°C
App
Temp
°C
Dew
Point
Rel
Hum
%
Delta-T
°C
Wind Press
QNH
hPa
Press
MSL
hPa
Rain
since 9 am
mm
Dir
 
Spd
km/h
Gust
km/h
Spd
kts
Gust
kts
01/11:30pm 13.0 - - - - WSW 32 46 17 25 1019.6 1019.6 -
01/11:04pm 13.4 - - - - WNW 28 48 15 26 1019.0 1019.0 -
01/11:00pm 13.3 - - - - WNW 22 43 12 23 1018.9 1018.9 -
01/10:30pm 12.6 - - - - NW 19 28 10 15 1019.3 1019.3 -
01/10:00pm 12.8 - - - - NW 22 35 12 19 1019.5 1019.5 -
01/09:30pm 13.0 - - - - NW 22 37 12 20 1020.0 1020.0 -
01/09:00pm 13.0 - - - - NW 22 33 12 18 1020.3 1020.3 -
01/08:30pm 13.1 - - - - NW 20 30 11 16 1020.4 1020.4 -
01/08:00pm 12.9 - - - - NW 24 33 13 18 1020.4 1020.4 -
01/07:30pm 12.9 - - - - NW 19 30 10 16 1020.6 1020.6 -
01/07:00pm 13.2 - - - - NW 19 28 10 15 1020.5 1020.5 -
01/06:30pm 13.3 - - - - NW 19 28 10 15 1020.4 1020.4 -
01/06:00pm 13.3 - - - - NW 19 26 10 14 1020.7 1020.7 -
01/05:30pm 13.3 - - - - WNW 20 33 11 18 1020.7 1020.7 -
01/05:00pm 13.7 - - - - NW 20 30 11 16 1020.7 1020.7 -
01/04:30pm 13.9 - - - - NW 26 39 14 21 1020.7 1020.7 -
01/04:00pm 14.1 - - - - WNW 28 41 15 22 1021.0 1021.0 -
01/03:30pm 13.4 - - - - NW 24 39 13 21 1021.1 1021.1 -
01/03:00pm 13.9 - - - - NNW 30 44 16 24 1021.3 1021.3 -
01/02:30pm 14.0 - - - - NW 28 41 15 22 1021.5 1021.5 -
01/02:00pm 13.8 - - - - NW 22 33 12 18 1021.9 1021.9 -
01/01:30pm 13.3 - - - - NW 22 37 12 20 1022.5 1022.5 -
01/01:00pm 13.6 - - - - NNW 28 37 15 20 1023.1 1023.1 -
01/12:30pm 13.7 - - - - NW 24 37 13 20 1023.6 1023.6 -
01/12:00pm 13.1 - - - - NW 22 33 12 18 1024.1 1024.1 -
01/11:30am 12.5 - - - - NW 22 32 12 17 1024.8 1024.8 -
01/11:00am 11.8 - - - - NNW 19 28 10 15 1025.3 1025.3 -
01/10:30am 11.0 - - - - NNW 20 30 11 16 1025.5 1025.5 -
01/10:00am 10.1 - - - - NNW 17 24 9 13 1025.8 1025.8 -
01/09:30am 9.6 - - - - NNW 19 24 10 13 1026.1 1026.1 -
01/09:00am 9.1 - - - - NNW 17 28 9 15 1026.4 1026.4 -
01/08:30am 9.4 - - - - NW 13 20 7 11 1026.5 1026.5 -
01/08:00am 9.2 - - - - NNW 19 24 10 13 1026.5 1026.5 -
01/07:30am 8.7 - - - - NNW 17 22 9 12 1026.4 1026.4 -
01/07:00am 8.8 - - - - NNW 17 24 9 13 1026.3 1026.3 -
01/06:30am 9.5 - - - - NNW 13 19 7 10 1026.2 1026.2 -
01/06:00am 9.9 - - - - NW 11 17 6 9 1026.2 1026.2 -
01/05:30am 10.0 - - - - NW 9 15 5 8 1026.2 1026.2 -
01/05:00am 9.5 - - - - NW 13 19 7 10 1026.4 1026.4 -
01/04:30am 9.5 - - - - NW 15 22 8 12 1026.4 1026.4 -
01/04:00am 10.2 - - - - NW 15 20 8 11 1026.5 1026.5 -
01/03:30am 10.2 - - - - NW 19 28 10 15 1026.7 1026.7 -
01/03:00am 10.0 - - - - NW 13 17 7 9 1027.2 1027.2 -
01/02:30am 10.0 - - - - NW 11 17 6 9 1027.3 1027.3 -
01/02:00am 10.3 - - - - NW 13 17 7 9 1027.3 1027.3 -
01/01:30am 10.8 - - - - NNW 15 20 8 11 1027.3 1027.3 -
01/01:00am 10.6 - - - - NW 11 15 6 8 1027.7 1027.7 -
01/12:30am 10.7 - - - - WNW 17 22 9 12 1027.9 1027.9 -
01/12:00am 10.7 - - - - NW 15 24 8 13 1027.8 1027.8 -
 
Date/Time
EST
Temp
°C
App
Temp
°C
Dew
Point
Rel
Hum
%
Delta-T
°C
Wind Press
QNH
hPa
Press
MSL
hPa
Rain
since 9 am
mm
Dir
 
Spd
km/h
Gust
km/h
Spd
kts
Gust
kts
30/11:30pm 10.8 - - - - NNW 15 22 8 12 1028.0 1028.0 -
30/11:00pm 10.9 - - - - NW 11 15 6 8 1028.3 1028.3 -
30/10:30pm 11.7 - - - - NW 11 17 6 9 1028.5 1028.5 -
30/10:00pm 11.3 - - - - NW 13 20 7 11 1028.7 1028.7 -
30/09:30pm 11.6 - - - - W 4 6 2 3 1028.4 1028.4 -
30/09:00pm 10.8 - - - - W 9 15 5 8 1028.6 1028.6 -
30/08:30pm 10.7 - - - - WSW 6 9 3 5 1028.5 1028.5 -
30/08:00pm 10.8 - - - - NW 9 15 5 8 1028.5 1028.5 -
30/07:30pm 10.0 - - - - WNW 9 9 5 5 1028.4 1028.4 -
30/07:00pm 9.8 - - - - W 7 9 4 5 1028.2 1028.2 -
30/06:30pm 10.2 - - - - W 6 7 3 4 1028.1 1028.1 -
30/06:00pm 10.7 - - - - WNW 4 7 2 4 1028.0 1028.0 -
30/05:30pm 11.4 - - - - NNW 7 13 4 7 1027.8 1027.8 -
30/05:00pm 11.0 - - - - NW 6 9 3 5 1027.9 1027.9 -
30/04:30pm 10.7 - - - - W 17 22 9 12 1027.9 1027.9 -
30/04:00pm 11.3 - - - - NW 11 15 6 8 1027.6 1027.6 -
30/03:30pm 11.4 - - - - WNW 17 22 9 12 1027.6 1027.6 -
30/03:00pm 11.7 - - - - WNW 13 17 7 9 1027.5 1027.5 -
30/02:30pm 12.3 - - - - W 9 15 5 8 1027.5 1027.5 -
30/02:00pm 11.3 - - - - NW 17 22 9 12 1027.9 1027.9 -
30/01:30pm 10.8 - - - - WSW 17 26 9 14 1028.0 1028.0 -
30/01:00pm 12.2 - - - - WSW 22 32 12 17 1028.0 1028.0 -
30/12:30pm 12.6 - - - - WNW 19 24 10 13 1028.2 1028.2 -
30/12:00pm 12.5 - - - - WNW 17 24 9 13 1028.4 1028.4 -
30/11:30am 12.2 - - - - WNW 17 22 9 12 1029.0 1029.0 -
30/11:00am 12.2 - - - - WNW 11 15 6 8 1029.2 1029.2 -
30/10:30am 11.7 - - - - WNW 15 19 8 10 1029.3 1029.3 -
30/10:00am 11.1 - - - - NW 9 13 5 7 1029.2 1029.2 -
30/09:30am 10.4 - - - - NW 7 11 4 6 1029.1 1029.1 -

Other Formats:

Comma delimited format used in spreadsheet applications
http://www.bom.gov.au/fwo/IDV60801/IDV60801.95826.axf

JavaScript Object Notation format (JSON) in row-major order
http://www.bom.gov.au/fwo/IDV60801/IDV60801.95826.json